Spy Hill, Canada
Current Conditions -  °F | °C
As of 8:00 PM on Wednesday 22 Oct 2014 (Local Time) from CYQV Reporting Station
Overcast Overcast  
Wind Chill: 50°   Ceiling: 1700
Heat Index: 50°   Visibility: 9mi
Dew Point: 45°   Wind: 12mph
Humidity: 82%   Direction: 280°W
Pressure: 29.72"   Gusts: 18mph
Location:  50.6°N, 101.68°W
Report Text: CYQV 230200Z AUTO 28010G16KT 9SM OVC017 10/07 A2972 RMK SLP076
Loading
Personal Weather Stations






























Interactive Weather Map
Tropical Storm Tracking
New forecast layout! Learn more

10-Day Weather Forecast

Advertisements
Track Severe Weather on mobile